sensor_id;sensor_type;location;lat;lon;timestamp;P1;durP1;ratioP1;P2;durP2;ratioP2
69240;SDS011;56352;55.750;13.198;2024-03-29T00:01:15;7.63;;;5.18;;
69240;SDS011;56352;55.750;13.198;2024-03-29T00:03:41;8.23;;;5.32;;
69240;SDS011;56352;55.750;13.198;2024-03-29T00:06:07;7.22;;;4.75;;
69240;SDS011;56352;55.750;13.198;2024-03-29T00:08:32;6.57;;;4.30;;
69240;SDS011;56352;55.750;13.198;2024-03-29T00:10:58;7.05;;;4.25;;
69240;SDS011;56352;55.750;13.198;2024-03-29T00:13:23;7.72;;;3.80;;
69240;SDS011;56352;55.750;13.198;2024-03-29T00:15:49;5.45;;;2.83;;
69240;SDS011;56352;55.750;13.198;2024-03-29T00:18:14;2.53;;;1.38;;
69240;SDS011;56352;55.750;13.198;2024-03-29T00:20:40;3.80;;;0.88;;
69240;SDS011;56352;55.750;13.198;2024-03-29T00:23:05;1.85;;;0.55;;
69240;SDS011;56352;55.750;13.198;2024-03-29T00:25:31;1.15;;;0.60;;
69240;SDS011;56352;55.750;13.198;2024-03-29T00:27:56;5.35;;;1.30;;
69240;SDS011;56352;55.750;13.198;2024-03-29T00:30:22;3.05;;;0.77;;
69240;SDS011;56352;55.750;13.198;2024-03-29T00:32:47;3.28;;;0.73;;
69240;SDS011;56352;55.750;13.198;2024-03-29T00:35:13;1.95;;;0.60;;
69240;SDS011;56352;55.750;13.198;2024-03-29T00:37:39;0.98;;;0.50;;
69240;SDS011;56352;55.750;13.198;2024-03-29T00:40:05;2.83;;;0.60;;
69240;SDS011;56352;55.750;13.198;2024-03-29T00:42:30;2.47;;;0.50;;
69240;SDS011;56352;55.750;13.198;2024-03-29T00:44:56;2.60;;;0.88;;
69240;SDS011;56352;55.750;13.198;2024-03-29T00:47:21;3.72;;;1.00;;
69240;SDS011;56352;55.750;13.198;2024-03-29T00:49:47;1.35;;;0.60;;
69240;SDS011;56352;55.750;13.198;2024-03-29T00:52:12;4.88;;;0.70;;
69240;SDS011;56352;55.750;13.198;2024-03-29T00:54:38;1.48;;;0.52;;
69240;SDS011;56352;55.750;13.198;2024-03-29T00:57:03;5.93;;;0.77;;
69240;SDS011;56352;55.750;13.198;2024-03-29T00:59:29;11.75;;;1.40;;
69240;SDS011;56352;55.750;13.198;2024-03-29T01:01:54;4.13;;;0.85;;
69240;SDS011;56352;55.750;13.198;2024-03-29T01:04:20;5.68;;;0.90;;
69240;SDS011;56352;55.750;13.198;2024-03-29T01:06:45;8.07;;;0.80;;
69240;SDS011;56352;55.750;13.198;2024-03-29T01:09:11;2.53;;;0.45;;
69240;SDS011;56352;55.750;13.198;2024-03-29T01:11:39;5.50;;;0.82;;
69240;SDS011;56352;55.750;13.198;2024-03-29T01:14:05;2.45;;;0.75;;
69240;SDS011;56352;55.750;13.198;2024-03-29T01:16:31;3.60;;;0.70;;
69240;SDS011;56352;55.750;13.198;2024-03-29T01:18:57;1.83;;;0.80;;
69240;SDS011;56352;55.750;13.198;2024-03-29T01:21:22;3.30;;;1.27;;
69240;SDS011;56352;55.750;13.198;2024-03-29T01:23:48;3.40;;;1.00;;
69240;SDS011;56352;55.750;13.198;2024-03-29T01:26:14;3.08;;;0.93;;
69240;SDS011;56352;55.750;13.198;2024-03-29T01:28:42;3.75;;;0.73;;
69240;SDS011;56352;55.750;13.198;2024-03-29T01:31:08;4.80;;;0.93;;
69240;SDS011;56352;55.750;13.198;2024-03-29T01:33:33;3.88;;;0.80;;
69240;SDS011;56352;55.750;13.198;2024-03-29T01:36:03;3.97;;;1.08;;
69240;SDS011;56352;55.750;13.198;2024-03-29T01:38:28;3.33;;;0.90;;
69240;SDS011;56352;55.750;13.198;2024-03-29T01:40:54;5.88;;;1.00;;
69240;SDS011;56352;55.750;13.198;2024-03-29T01:43:19;1.20;;;0.95;;
69240;SDS011;56352;55.750;13.198;2024-03-29T01:45:46;2.92;;;1.00;;
69240;SDS011;56352;55.750;13.198;2024-03-29T01:48:12;2.38;;;0.90;;
69240;SDS011;56352;55.750;13.198;2024-03-29T01:50:38;3.95;;;1.13;;
69240;SDS011;56352;55.750;13.198;2024-03-29T01:53:05;8.20;;;1.17;;
69240;SDS011;56352;55.750;13.198;2024-03-29T01:55:30;5.13;;;0.90;;
69240;SDS011;56352;55.750;13.198;2024-03-29T01:57:56;1.55;;;0.90;;
69240;SDS011;56352;55.750;13.198;2024-03-29T02:00:22;6.47;;;1.27;;
69240;SDS011;56352;55.750;13.198;2024-03-29T02:02:48;5.38;;;1.10;;
69240;SDS011;56352;55.750;13.198;2024-03-29T02:05:13;3.85;;;1.40;;
69240;SDS011;56352;55.750;13.198;2024-03-29T02:07:39;4.18;;;1.38;;
69240;SDS011;56352;55.750;13.198;2024-03-29T02:10:05;6.30;;;1.77;;
69240;SDS011;56352;55.750;13.198;2024-03-29T02:12:33;4.97;;;1.33;;
69240;SDS011;56352;55.750;13.198;2024-03-29T02:14:59;3.53;;;1.50;;
69240;SDS011;56352;55.750;13.198;2024-03-29T02:17:25;9.30;;;1.60;;
69240;SDS011;56352;55.750;13.198;2024-03-29T02:19:50;6.32;;;1.90;;
69240;SDS011;56352;55.750;13.198;2024-03-29T02:22:16;4.55;;;1.77;;
69240;SDS011;56352;55.750;13.198;2024-03-29T02:24:42;3.08;;;1.70;;
69240;SDS011;56352;55.750;13.198;2024-03-29T02:27:08;8.95;;;2.30;;
69240;SDS011;56352;55.750;13.198;2024-03-29T02:29:35;8.20;;;1.73;;
69240;SDS011;56352;55.750;13.198;2024-03-29T02:32:02;6.72;;;1.90;;
69240;SDS011;56352;55.750;13.198;2024-03-29T02:34:28;4.82;;;1.80;;
69240;SDS011;56352;55.750;13.198;2024-03-29T02:36:53;5.88;;;2.20;;
69240;SDS011;56352;55.750;13.198;2024-03-29T02:39:19;5.00;;;2.17;;
69240;SDS011;56352;55.750;13.198;2024-03-29T02:41:44;5.93;;;2.42;;
69240;SDS011;56352;55.750;13.198;2024-03-29T02:44:10;4.85;;;2.67;;
69240;SDS011;56352;55.750;13.198;2024-03-29T02:46:36;6.38;;;3.10;;
69240;SDS011;56352;55.750;13.198;2024-03-29T02:49:01;6.35;;;2.95;;
69240;SDS011;56352;55.750;13.198;2024-03-29T02:51:26;5.03;;;3.05;;
69240;SDS011;56352;55.750;13.198;2024-03-29T02:53:52;6.85;;;3.53;;
69240;SDS011;56352;55.750;13.198;2024-03-29T02:56:17;7.03;;;4.78;;
69240;SDS011;56352;55.750;13.198;2024-03-29T02:58:46;10.05;;;4.38;;
69240;SDS011;56352;55.750;13.198;2024-03-29T03:01:12;10.35;;;4.47;;
69240;SDS011;56352;55.750;13.198;2024-03-29T03:03:37;7.57;;;4.13;;
69240;SDS011;56352;55.750;13.198;2024-03-29T03:06:03;7.22;;;4.10;;
69240;SDS011;56352;55.750;13.198;2024-03-29T03:08:29;10.20;;;4.95;;
69240;SDS011;56352;55.750;13.198;2024-03-29T03:11:13;7.95;;;4.43;;
69240;SDS011;56352;55.750;13.198;2024-03-29T03:13:38;8.77;;;4.30;;
69240;SDS011;56352;55.750;13.198;2024-03-29T03:16:04;10.48;;;5.07;;
69240;SDS011;56352;55.750;13.198;2024-03-29T03:18:29;12.65;;;5.25;;
69240;SDS011;56352;55.750;13.198;2024-03-29T03:20:55;13.25;;;5.25;;
69240;SDS011;56352;55.750;13.198;2024-03-29T03:23:23;9.63;;;5.82;;
69240;SDS011;56352;55.750;13.198;2024-03-29T03:25:55;12.23;;;5.05;;
69240;SDS011;56352;55.750;13.198;2024-03-29T03:28:21;9.18;;;5.22;;
69240;SDS011;56352;55.750;13.198;2024-03-29T03:30:48;12.43;;;5.70;;
69240;SDS011;56352;55.750;13.198;2024-03-29T03:33:13;10.18;;;5.47;;
69240;SDS011;56352;55.750;13.198;2024-03-29T03:35:39;10.63;;;5.40;;
69240;SDS011;56352;55.750;13.198;2024-03-29T03:38:04;9.57;;;5.30;;
69240;SDS011;56352;55.750;13.198;2024-03-29T03:40:30;10.30;;;5.85;;
69240;SDS011;56352;55.750;13.198;2024-03-29T03:42:58;10.52;;;5.72;;
69240;SDS011;56352;55.750;13.198;2024-03-29T03:45:23;10.35;;;5.95;;
69240;SDS011;56352;55.750;13.198;2024-03-29T03:47:49;13.68;;;5.90;;
69240;SDS011;56352;55.750;13.198;2024-03-29T03:50:14;9.77;;;5.25;;
69240;SDS011;56352;55.750;13.198;2024-03-29T03:52:40;10.02;;;5.95;;
69240;SDS011;56352;55.750;13.198;2024-03-29T03:55:05;11.70;;;6.20;;
69240;SDS011;56352;55.750;13.198;2024-03-29T03:57:31;11.63;;;6.32;;
69240;SDS011;56352;55.750;13.198;2024-03-29T03:59:56;10.48;;;6.28;;
69240;SDS011;56352;55.750;13.198;2024-03-29T04:02:22;12.30;;;6.75;;
69240;SDS011;56352;55.750;13.198;2024-03-29T04:04:47;12.13;;;6.88;;
69240;SDS011;56352;55.750;13.198;2024-03-29T04:07:13;12.77;;;6.45;;
69240;SDS011;56352;55.750;13.198;2024-03-29T04:09:39;10.75;;;5.95;;
69240;SDS011;56352;55.750;13.198;2024-03-29T04:12:04;12.55;;;7.20;;
69240;SDS011;56352;55.750;13.198;2024-03-29T04:14:30;12.90;;;7.50;;
69240;SDS011;56352;55.750;13.198;2024-03-29T04:16:55;10.93;;;6.93;;
69240;SDS011;56352;55.750;13.198;2024-03-29T04:19:21;11.50;;;6.88;;
69240;SDS011;56352;55.750;13.198;2024-03-29T04:21:46;10.10;;;6.20;;
69240;SDS011;56352;55.750;13.198;2024-03-29T04:24:11;11.25;;;6.65;;
69240;SDS011;56352;55.750;13.198;2024-03-29T04:26:37;12.45;;;7.10;;
69240;SDS011;56352;55.750;13.198;2024-03-29T04:29:03;10.43;;;6.18;;
69240;SDS011;56352;55.750;13.198;2024-03-29T04:31:29;13.00;;;6.68;;
69240;SDS011;56352;55.750;13.198;2024-03-29T04:33:54;11.43;;;7.03;;
69240;SDS011;56352;55.750;13.198;2024-03-29T04:36:20;11.20;;;6.72;;
69240;SDS011;56352;55.750;13.198;2024-03-29T04:38:45;13.90;;;7.45;;
69240;SDS011;56352;55.750;13.198;2024-03-29T04:41:12;12.45;;;6.93;;
69240;SDS011;56352;55.750;13.198;2024-03-29T04:43:38;12.57;;;7.57;;
69240;SDS011;56352;55.750;13.198;2024-03-29T04:46:10;13.00;;;7.60;;
69240;SDS011;56352;55.750;13.198;2024-03-29T04:48:36;13.70;;;7.25;;
69240;SDS011;56352;55.750;13.198;2024-03-29T04:51:02;13.63;;;7.30;;
69240;SDS011;56352;55.750;13.198;2024-03-29T04:53:28;14.50;;;7.65;;
69240;SDS011;56352;55.750;13.198;2024-03-29T04:55:57;14.18;;;8.05;;
69240;SDS011;56352;55.750;13.198;2024-03-29T04:58:23;11.55;;;7.13;;
69240;SDS011;56352;55.750;13.198;2024-03-29T05:00:49;11.88;;;7.13;;
69240;SDS011;56352;55.750;13.198;2024-03-29T05:03:16;12.95;;;7.40;;
69240;SDS011;56352;55.750;13.198;2024-03-29T05:05:44;15.73;;;8.43;;
69240;SDS011;56352;55.750;13.198;2024-03-29T05:08:10;13.70;;;8.30;;
69240;SDS011;56352;55.750;13.198;2024-03-29T05:10:35;14.30;;;7.57;;
69240;SDS011;56352;55.750;13.198;2024-03-29T05:13:01;11.27;;;6.85;;
69240;SDS011;56352;55.750;13.198;2024-03-29T05:15:27;11.43;;;7.55;;
69240;SDS011;56352;55.750;13.198;2024-03-29T05:17:55;13.18;;;7.18;;
69240;SDS011;56352;55.750;13.198;2024-03-29T05:20:21;14.05;;;7.57;;
69240;SDS011;56352;55.750;13.198;2024-03-29T05:22:46;12.23;;;6.80;;
69240;SDS011;56352;55.750;13.198;2024-03-29T05:25:11;12.85;;;6.35;;
69240;SDS011;56352;55.750;13.198;2024-03-29T05:27:37;11.93;;;6.85;;
69240;SDS011;56352;55.750;13.198;2024-03-29T05:30:03;10.48;;;6.55;;
69240;SDS011;56352;55.750;13.198;2024-03-29T05:32:29;13.75;;;7.15;;
69240;SDS011;56352;55.750;13.198;2024-03-29T05:34:55;8.65;;;5.88;;
69240;SDS011;56352;55.750;13.198;2024-03-29T05:37:20;9.32;;;5.95;;
69240;SDS011;56352;55.750;13.198;2024-03-29T05:39:47;11.70;;;5.80;;
69240;SDS011;56352;55.750;13.198;2024-03-29T05:42:13;11.07;;;5.70;;
69240;SDS011;56352;55.750;13.198;2024-03-29T05:44:38;11.40;;;5.78;;
69240;SDS011;56352;55.750;13.198;2024-03-29T05:47:04;9.25;;;5.55;;
69240;SDS011;56352;55.750;13.198;2024-03-29T05:49:32;7.38;;;5.03;;
69240;SDS011;56352;55.750;13.198;2024-03-29T05:51:58;9.13;;;5.63;;
69240;SDS011;56352;55.750;13.198;2024-03-29T05:54:24;7.13;;;5.00;;
69240;SDS011;56352;55.750;13.198;2024-03-29T05:56:50;8.73;;;5.68;;
69240;SDS011;56352;55.750;13.198;2024-03-29T05:59:15;8.38;;;4.82;;
69240;SDS011;56352;55.750;13.198;2024-03-29T06:01:41;9.80;;;4.45;;
69240;SDS011;56352;55.750;13.198;2024-03-29T06:04:07;6.63;;;4.05;;
69240;SDS011;56352;55.750;13.198;2024-03-29T06:06:40;7.68;;;4.07;;
69240;SDS011;56352;55.750;13.198;2024-03-29T06:09:05;6.25;;;3.70;;
69240;SDS011;56352;55.750;13.198;2024-03-29T06:11:31;6.32;;;3.70;;
69240;SDS011;56352;55.750;13.198;2024-03-29T06:13:56;6.25;;;3.38;;
69240;SDS011;56352;55.750;13.198;2024-03-29T06:16:24;4.38;;;2.90;;
69240;SDS011;56352;55.750;13.198;2024-03-29T06:19:09;7.57;;;2.95;;
69240;SDS011;56352;55.750;13.198;2024-03-29T06:21:35;4.45;;;3.20;;
69240;SDS011;56352;55.750;13.198;2024-03-29T06:24:09;4.35;;;2.92;;
69240;SDS011;56352;55.750;13.198;2024-03-29T06:26:37;5.45;;;2.60;;
69240;SDS011;56352;55.750;13.198;2024-03-29T06:29:03;3.08;;;1.98;;
69240;SDS011;56352;55.750;13.198;2024-03-29T06:31:28;3.92;;;2.15;;
69240;SDS011;56352;55.750;13.198;2024-03-29T06:33:54;5.78;;;2.70;;
69240;SDS011;56352;55.750;13.198;2024-03-29T06:36:20;2.65;;;2.10;;
69240;SDS011;56352;55.750;13.198;2024-03-29T06:38:45;3.92;;;2.30;;
69240;SDS011;56352;55.750;13.198;2024-03-29T06:41:11;3.10;;;1.85;;
69240;SDS011;56352;55.750;13.198;2024-03-29T06:43:37;4.07;;;1.88;;
69240;SDS011;56352;55.750;13.198;2024-03-29T06:46:03;2.60;;;2.10;;
69240;SDS011;56352;55.750;13.198;2024-03-29T06:48:29;2.75;;;1.90;;
69240;SDS011;56352;55.750;13.198;2024-03-29T06:50:56;4.78;;;1.90;;
69240;SDS011;56352;55.750;13.198;2024-03-29T06:53:22;3.45;;;1.80;;
69240;SDS011;56352;55.750;13.198;2024-03-29T06:55:48;4.13;;;1.88;;
69240;SDS011;56352;55.750;13.198;2024-03-29T06:58:14;3.55;;;1.95;;
69240;SDS011;56352;55.750;13.198;2024-03-29T07:00:40;4.88;;;1.83;;
69240;SDS011;56352;55.750;13.198;2024-03-29T07:03:06;6.18;;;1.85;;
69240;SDS011;56352;55.750;13.198;2024-03-29T07:05:32;3.38;;;1.55;;
69240;SDS011;56352;55.750;13.198;2024-03-29T07:07:57;4.18;;;1.65;;
69240;SDS011;56352;55.750;13.198;2024-03-29T07:10:25;3.97;;;2.15;;
69240;SDS011;56352;55.750;13.198;2024-03-29T07:12:50;3.65;;;1.55;;
69240;SDS011;56352;55.750;13.198;2024-03-29T07:15:16;4.20;;;1.60;;
69240;SDS011;56352;55.750;13.198;2024-03-29T07:17:41;2.42;;;1.58;;
69240;SDS011;56352;55.750;13.198;2024-03-29T07:20:09;3.55;;;1.40;;
69240;SDS011;56352;55.750;13.198;2024-03-29T07:22:35;3.50;;;1.40;;
69240;SDS011;56352;55.750;13.198;2024-03-29T07:25:00;7.00;;;1.60;;
69240;SDS011;56352;55.750;13.198;2024-03-29T07:27:26;2.88;;;1.13;;
69240;SDS011;56352;55.750;13.198;2024-03-29T07:29:53;3.85;;;1.50;;
69240;SDS011;56352;55.750;13.198;2024-03-29T07:32:18;2.42;;;1.20;;
69240;SDS011;56352;55.750;13.198;2024-03-29T07:34:45;4.30;;;1.45;;
69240;SDS011;56352;55.750;13.198;2024-03-29T07:37:11;2.78;;;1.10;;
69240;SDS011;56352;55.750;13.198;2024-03-29T07:39:40;2.83;;;1.10;;
69240;SDS011;56352;55.750;13.198;2024-03-29T07:42:06;3.10;;;1.20;;
69240;SDS011;56352;55.750;13.198;2024-03-29T07:44:31;3.85;;;1.58;;
69240;SDS011;56352;55.750;13.198;2024-03-29T07:46:57;3.33;;;1.20;;
69240;SDS011;56352;55.750;13.198;2024-03-29T07:49:22;2.05;;;1.30;;
69240;SDS011;56352;55.750;13.198;2024-03-29T07:51:48;1.58;;;0.95;;
69240;SDS011;56352;55.750;13.198;2024-03-29T07:54:13;3.63;;;1.05;;
69240;SDS011;56352;55.750;13.198;2024-03-29T07:56:39;5.43;;;1.63;;
69240;SDS011;56352;55.750;13.198;2024-03-29T07:59:04;3.47;;;1.10;;
69240;SDS011;56352;55.750;13.198;2024-03-29T08:01:30;4.20;;;1.10;;
69240;SDS011;56352;55.750;13.198;2024-03-29T08:03:55;4.22;;;1.33;;
69240;SDS011;56352;55.750;13.198;2024-03-29T08:06:21;1.50;;;0.90;;
69240;SDS011;56352;55.750;13.198;2024-03-29T08:08:48;2.70;;;1.00;;
69240;SDS011;56352;55.750;13.198;2024-03-29T08:11:14;3.47;;;1.60;;
69240;SDS011;56352;55.750;13.198;2024-03-29T08:13:40;5.65;;;1.30;;
69240;SDS011;56352;55.750;13.198;2024-03-29T08:16:06;3.10;;;1.10;;
69240;SDS011;56352;55.750;13.198;2024-03-29T08:18:34;3.85;;;1.17;;
69240;SDS011;56352;55.750;13.198;2024-03-29T08:21:00;1.73;;;1.10;;
69240;SDS011;56352;55.750;13.198;2024-03-29T08:23:26;3.42;;;1.50;;
69240;SDS011;56352;55.750;13.198;2024-03-29T08:25:51;4.43;;;1.42;;
69240;SDS011;56352;55.750;13.198;2024-03-29T08:28:20;2.78;;;1.30;;
69240;SDS011;56352;55.750;13.198;2024-03-29T08:30:46;2.90;;;1.27;;
69240;SDS011;56352;55.750;13.198;2024-03-29T08:33:11;5.25;;;1.67;;
69240;SDS011;56352;55.750;13.198;2024-03-29T08:35:37;4.53;;;1.35;;
69240;SDS011;56352;55.750;13.198;2024-03-29T08:38:03;3.45;;;1.17;;
69240;SDS011;56352;55.750;13.198;2024-03-29T08:40:29;4.57;;;1.23;;
69240;SDS011;56352;55.750;13.198;2024-03-29T08:42:56;3.25;;;1.40;;
69240;SDS011;56352;55.750;13.198;2024-03-29T08:45:22;4.43;;;1.20;;
69240;SDS011;56352;55.750;13.198;2024-03-29T08:47:48;2.58;;;1.10;;
69240;SDS011;56352;55.750;13.198;2024-03-29T08:50:16;3.72;;;1.00;;
69240;SDS011;56352;55.750;13.198;2024-03-29T08:52:41;2.97;;;0.98;;
69240;SDS011;56352;55.750;13.198;2024-03-29T08:55:07;3.05;;;1.10;;
69240;SDS011;56352;55.750;13.198;2024-03-29T08:57:33;4.65;;;1.50;;
69240;SDS011;56352;55.750;13.198;2024-03-29T08:59:58;5.50;;;1.20;;
69240;SDS011;56352;55.750;13.198;2024-03-29T09:02:24;9.35;;;1.20;;
69240;SDS011;56352;55.750;13.198;2024-03-29T09:04:49;1.50;;;1.20;;
69240;SDS011;56352;55.750;13.198;2024-03-29T09:07:14;2.08;;;1.05;;
69240;SDS011;56352;55.750;13.198;2024-03-29T09:09:40;1.70;;;0.82;;
69240;SDS011;56352;55.750;13.198;2024-03-29T09:12:07;3.65;;;1.10;;
69240;SDS011;56352;55.750;13.198;2024-03-29T09:14:33;3.38;;;1.33;;
69240;SDS011;56352;55.750;13.198;2024-03-29T09:16:58;2.25;;;0.82;;
69240;SDS011;56352;55.750;13.198;2024-03-29T09:19:24;4.90;;;1.05;;
69240;SDS011;56352;55.750;13.198;2024-03-29T09:21:50;6.20;;;1.10;;
69240;SDS011;56352;55.750;13.198;2024-03-29T09:24:15;3.35;;;1.13;;
69240;SDS011;56352;55.750;13.198;2024-03-29T09:26:45;5.10;;;1.63;;
69240;SDS011;56352;55.750;13.198;2024-03-29T09:29:11;4.00;;;0.88;;
69240;SDS011;56352;55.750;13.198;2024-03-29T09:31:38;4.32;;;1.10;;
69240;SDS011;56352;55.750;13.198;2024-03-29T09:34:03;3.65;;;1.10;;
69240;SDS011;56352;55.750;13.198;2024-03-29T09:36:29;2.08;;;1.10;;
69240;SDS011;56352;55.750;13.198;2024-03-29T09:38:54;2.60;;;1.00;;
69240;SDS011;56352;55.750;13.198;2024-03-29T09:41:20;3.67;;;0.90;;
69240;SDS011;56352;55.750;13.198;2024-03-29T09:43:47;2.35;;;0.85;;
69240;SDS011;56352;55.750;13.198;2024-03-29T09:46:13;4.90;;;1.45;;
69240;SDS011;56352;55.750;13.198;2024-03-29T09:48:41;3.85;;;1.55;;
69240;SDS011;56352;55.750;13.198;2024-03-29T09:51:08;3.40;;;1.00;;
69240;SDS011;56352;55.750;13.198;2024-03-29T09:53:34;6.80;;;1.13;;
69240;SDS011;56352;55.750;13.198;2024-03-29T09:56:02;5.68;;;1.63;;
69240;SDS011;56352;55.750;13.198;2024-03-29T09:58:29;2.97;;;0.95;;
69240;SDS011;56352;55.750;13.198;2024-03-29T10:00:55;1.83;;;0.90;;
69240;SDS011;56352;55.750;13.198;2024-03-29T10:03:22;2.03;;;0.82;;
69240;SDS011;56352;55.750;13.198;2024-03-29T10:05:47;2.47;;;1.00;;
69240;SDS011;56352;55.750;13.198;2024-03-29T10:08:14;3.50;;;1.13;;
69240;SDS011;56352;55.750;13.198;2024-03-29T10:10:40;6.43;;;1.17;;
69240;SDS011;56352;55.750;13.198;2024-03-29T10:13:06;4.22;;;1.08;;
69240;SDS011;56352;55.750;13.198;2024-03-29T10:15:31;3.13;;;1.10;;
69240;SDS011;56352;55.750;13.198;2024-03-29T10:18:02;2.72;;;0.90;;
69240;SDS011;56352;55.750;13.198;2024-03-29T10:20:28;2.65;;;0.88;;
69240;SDS011;56352;55.750;13.198;2024-03-29T10:22:53;2.20;;;0.70;;
69240;SDS011;56352;55.750;13.198;2024-03-29T10:25:21;3.67;;;1.13;;
69240;SDS011;56352;55.750;13.198;2024-03-29T10:27:46;4.18;;;1.20;;
69240;SDS011;56352;55.750;13.198;2024-03-29T10:30:12;4.32;;;1.10;;
69240;SDS011;56352;55.750;13.198;2024-03-29T10:32:42;3.63;;;1.17;;
69240;SDS011;56352;55.750;13.198;2024-03-29T10:35:08;2.75;;;0.82;;
69240;SDS011;56352;55.750;13.198;2024-03-29T10:37:35;1.90;;;0.90;;
69240;SDS011;56352;55.750;13.198;2024-03-29T10:40:10;4.47;;;1.08;;
69240;SDS011;56352;55.750;13.198;2024-03-29T10:42:39;3.20;;;1.20;;
69240;SDS011;56352;55.750;13.198;2024-03-29T10:45:05;1.70;;;1.00;;
69240;SDS011;56352;55.750;13.198;2024-03-29T10:47:31;2.63;;;1.05;;
69240;SDS011;56352;55.750;13.198;2024-03-29T10:49:57;2.80;;;1.30;;
69240;SDS011;56352;55.750;13.198;2024-03-29T10:52:24;3.17;;;1.10;;
69240;SDS011;56352;55.750;13.198;2024-03-29T10:54:50;2.97;;;1.13;;
69240;SDS011;56352;55.750;13.198;2024-03-29T10:57:20;3.70;;;1.40;;
69240;SDS011;56352;55.750;13.198;2024-03-29T11:00:08;2.13;;;0.85;;
69240;SDS011;56352;55.750;13.198;2024-03-29T11:02:35;3.70;;;1.00;;
69240;SDS011;56352;55.750;13.198;2024-03-29T11:05:06;3.35;;;1.15;;
69240;SDS011;56352;55.750;13.198;2024-03-29T11:07:33;4.03;;;1.20;;
69240;SDS011;56352;55.750;13.198;2024-03-29T11:09:59;3.55;;;0.93;;
69240;SDS011;56352;55.750;13.198;2024-03-29T11:12:26;3.63;;;0.90;;
69240;SDS011;56352;55.750;13.198;2024-03-29T11:14:58;3.65;;;1.08;;
69240;SDS011;56352;55.750;13.198;2024-03-29T11:17:28;5.00;;;1.20;;
69240;SDS011;56352;55.750;13.198;2024-03-29T11:19:54;4.90;;;1.10;;
69240;SDS011;56352;55.750;13.198;2024-03-29T11:22:20;2.85;;;1.20;;
69240;SDS011;56352;55.750;13.198;2024-03-29T11:24:45;3.28;;;1.10;;
69240;SDS011;56352;55.750;13.198;2024-03-29T11:27:11;3.33;;;1.10;;
69240;SDS011;56352;55.750;13.198;2024-03-29T11:29:36;2.90;;;0.90;;
69240;SDS011;56352;55.750;13.198;2024-03-29T11:32:07;2.47;;;1.02;;
69240;SDS011;56352;55.750;13.198;2024-03-29T11:34:33;2.20;;;1.00;;
69240;SDS011;56352;55.750;13.198;2024-03-29T11:37:11;3.47;;;1.10;;
69240;SDS011;56352;55.750;13.198;2024-03-29T11:39:46;2.67;;;1.02;;
69240;SDS011;56352;55.750;13.198;2024-03-29T11:42:12;3.25;;;1.42;;
69240;SDS011;56352;55.750;13.198;2024-03-29T11:44:37;2.90;;;0.90;;
69240;SDS011;56352;55.750;13.198;2024-03-29T11:47:03;3.80;;;1.15;;
69240;SDS011;56352;55.750;13.198;2024-03-29T11:49:32;4.05;;;1.20;;
69240;SDS011;56352;55.750;13.198;2024-03-29T11:52:04;3.60;;;1.23;;
69240;SDS011;56352;55.750;13.198;2024-03-29T11:54:36;4.10;;;1.27;;
69240;SDS011;56352;55.750;13.198;2024-03-29T11:57:01;3.78;;;1.10;;
69240;SDS011;56352;55.750;13.198;2024-03-29T11:59:27;1.75;;;0.88;;
69240;SDS011;56352;55.750;13.198;2024-03-29T12:01:52;4.95;;;1.27;;
69240;SDS011;56352;55.750;13.198;2024-03-29T12:04:21;3.78;;;1.08;;
69240;SDS011;56352;55.750;13.198;2024-03-29T12:06:47;2.60;;;1.20;;
69240;SDS011;56352;55.750;13.198;2024-03-29T12:09:13;3.08;;;1.33;;
69240;SDS011;56352;55.750;13.198;2024-03-29T12:11:38;3.40;;;1.20;;
69240;SDS011;56352;55.750;13.198;2024-03-29T12:14:11;2.25;;;0.93;;
69240;SDS011;56352;55.750;13.198;2024-03-29T12:16:46;2.17;;;0.98;;
69240;SDS011;56352;55.750;13.198;2024-03-29T12:19:23;2.47;;;1.10;;
69240;SDS011;56352;55.750;13.198;2024-03-29T12:21:50;3.95;;;1.40;;
69240;SDS011;56352;55.750;13.198;2024-03-29T12:24:16;6.32;;;1.40;;
69240;SDS011;56352;55.750;13.198;2024-03-29T12:26:41;3.13;;;1.02;;
69240;SDS011;56352;55.750;13.198;2024-03-29T12:29:07;4.28;;;1.92;;
69240;SDS011;56352;55.750;13.198;2024-03-29T12:31:32;5.35;;;1.30;;
69240;SDS011;56352;55.750;13.198;2024-03-29T12:33:58;2.72;;;1.05;;
69240;SDS011;56352;55.750;13.198;2024-03-29T12:36:24;3.97;;;1.15;;
69240;SDS011;56352;55.750;13.198;2024-03-29T12:38:53;4.38;;;1.33;;
69240;SDS011;56352;55.750;13.198;2024-03-29T12:41:23;2.88;;;1.30;;
69240;SDS011;56352;55.750;13.198;2024-03-29T12:46:18;2.55;;;1.17;;
69240;SDS011;56352;55.750;13.198;2024-03-29T12:48:43;3.45;;;1.60;;
69240;SDS011;56352;55.750;13.198;2024-03-29T12:51:09;2.97;;;1.08;;
69240;SDS011;56352;55.750;13.198;2024-03-29T12:53:37;2.58;;;1.40;;
69240;SDS011;56352;55.750;13.198;2024-03-29T12:56:03;2.75;;;1.00;;
69240;SDS011;56352;55.750;13.198;2024-03-29T12:58:29;3.20;;;1.20;;
69240;SDS011;56352;55.750;13.198;2024-03-29T13:00:57;3.90;;;1.10;;
69240;SDS011;56352;55.750;13.198;2024-03-29T13:03:31;2.75;;;1.40;;
69240;SDS011;56352;55.750;13.198;2024-03-29T13:05:57;2.58;;;1.50;;
69240;SDS011;56352;55.750;13.198;2024-03-29T13:08:22;3.17;;;1.52;;
69240;SDS011;56352;55.750;13.198;2024-03-29T13:10:48;3.08;;;1.55;;
69240;SDS011;56352;55.750;13.198;2024-03-29T13:13:13;5.70;;;1.50;;
69240;SDS011;56352;55.750;13.198;2024-03-29T13:15:39;2.83;;;1.20;;
69240;SDS011;56352;55.750;13.198;2024-03-29T13:18:05;2.72;;;1.27;;
69240;SDS011;56352;55.750;13.198;2024-03-29T13:23:01;2.47;;;0.90;;
69240;SDS011;56352;55.750;13.198;2024-03-29T13:25:28;2.55;;;1.10;;
69240;SDS011;56352;55.750;13.198;2024-03-29T13:27:53;3.00;;;1.50;;
69240;SDS011;56352;55.750;13.198;2024-03-29T13:30:24;4.07;;;1.58;;
69240;SDS011;56352;55.750;13.198;2024-03-29T13:32:50;5.32;;;1.52;;
69240;SDS011;56352;55.750;13.198;2024-03-29T13:35:16;5.10;;;1.70;;
69240;SDS011;56352;55.750;13.198;2024-03-29T13:37:42;4.93;;;1.50;;
69240;SDS011;56352;55.750;13.198;2024-03-29T13:40:08;2.92;;;1.17;;
69240;SDS011;56352;55.750;13.198;2024-03-29T13:42:37;3.58;;;1.10;;
69240;SDS011;56352;55.750;13.198;2024-03-29T13:45:04;3.45;;;1.40;;
69240;SDS011;56352;55.750;13.198;2024-03-29T13:47:31;2.55;;;1.20;;
69240;SDS011;56352;55.750;13.198;2024-03-29T13:49:57;4.05;;;1.92;;
69240;SDS011;56352;55.750;13.198;2024-03-29T13:52:23;3.33;;;1.50;;
69240;SDS011;56352;55.750;13.198;2024-03-29T13:54:49;4.72;;;1.58;;
69240;SDS011;56352;55.750;13.198;2024-03-29T13:57:15;3.22;;;1.45;;
69240;SDS011;56352;55.750;13.198;2024-03-29T13:59:41;4.05;;;1.20;;
69240;SDS011;56352;55.750;13.198;2024-03-29T14:02:13;2.72;;;1.08;;
69240;SDS011;56352;55.750;13.198;2024-03-29T14:04:39;3.58;;;1.00;;
69240;SDS011;56352;55.750;13.198;2024-03-29T14:07:05;3.83;;;1.50;;
69240;SDS011;56352;55.750;13.198;2024-03-29T14:09:37;3.58;;;1.00;;
69240;SDS011;56352;55.750;13.198;2024-03-29T14:12:02;1.95;;;1.00;;
69240;SDS011;56352;55.750;13.198;2024-03-29T14:14:29;3.95;;;1.00;;
69240;SDS011;56352;55.750;13.198;2024-03-29T14:16:54;2.47;;;1.02;;
69240;SDS011;56352;55.750;13.198;2024-03-29T14:19:20;3.50;;;1.30;;
69240;SDS011;56352;55.750;13.198;2024-03-29T14:21:46;4.53;;;1.20;;
69240;SDS011;56352;55.750;13.198;2024-03-29T14:24:11;3.88;;;1.05;;
69240;SDS011;56352;55.750;13.198;2024-03-29T14:26:36;3.45;;;1.20;;
69240;SDS011;56352;55.750;13.198;2024-03-29T14:29:04;3.78;;;1.17;;
69240;SDS011;56352;55.750;13.198;2024-03-29T14:31:30;3.38;;;1.45;;
69240;SDS011;56352;55.750;13.198;2024-03-29T14:33:56;2.85;;;1.33;;